Date,TemperatureHighF,TemperatureAvgF,TemperatureLowF,DewpointHighF,DewpointAvgF,DewpointLowF,HumidityHigh,HumidityAvg,HumidityLow,PressureMaxIn,PressureMinIn,WindSpeedMaxMPH,WindSpeedAvgMPH,GustSpeedMaxMPH,PrecipitationSumIn
2013-1-1,32,28,22,28,22,13,88,78,65,0.00,40.00,8,4,14,0.00
2013-1-2,28,18,12,15,10,8,82,71,56,0.00,40.00,7,2,12,0.00
2013-1-3,31,20,8,20,12,4,85,71,45,0.00,40.00,12,4,21,0.00
2013-1-4,31,28,24,20,16,14,72,61,48,0.00,40.00,17,9,31,0.00
2013-1-5,35,29,22,23,19,14,76,66,53,0.00,40.00,9,4,16,0.00
2013-1-6,37,34,30,30,26,23,83,71,62,0.00,40.00,11,5,19,0.00
2013-1-7,35,30,27,25,23,21,81,74,58,0.00,40.00,10,4,16,0.55
2013-1-8,41,32,21,27,23,18,86,70,48,0.00,40.00,7,3,13,0.00
2013-1-9,49,40,31,37,29,24,80,65,47,0.00,40.00,12,5,21,3.39
2013-1-10,40,34,26,29,26,23,88,71,54,0.00,40.00,8,3,15,0.00
2013-1-11,58,48,40,51,40,25,92,74,49,0.00,40.00,12,5,19,2.79
2013-1-12,60,56,49,56,51,46,94,85,72,0.00,40.00,9,4,16,0.00
2013-1-13,65,61,40,56,53,38,91,77,65,0.00,40.00,13,7,25,1.10
2013-1-14,40,32,26,38,24,19,91,72,57,0.00,40.00,12,4,25,0.00
2013-1-15,33,28,23,21,19,18,84,69,54,0.00,40.00,9,3,13,0.55
2013-1-16,36,32,30,24,22,19,72,66,53,0.00,40.00,9,4,16,0.00
2013-1-17,36,34,27,26,23,15,73,66,58,0.00,40.00,11,4,19,0.00
2013-1-18,33,27,20,17,12,6,61,53,42,0.00,40.00,13,7,25,2.20
2013-1-19,52,42,33,23,19,17,53,40,25,0.00,40.00,15,8,28,0.00
2013-1-20,47,31,22,30,15,8,60,51,38,0.00,40.00,24,11,36,0.55
2013-1-21,22,18,10,14,8,2,78,66,58,0.00,40.00,20,8,31,1.10
2013-1-22,13,8,6,2,-1,-4,73,64,52,0.00,40.00,16,8,24,1.10
2013-1-23,17,11,4,10,2,-3,83,67,45,0.00,40.00,9,3,15,0.00
2013-1-24,23,15,11,13,6,-3,84,67,34,0.00,40.00,11,3,17,0.55
2013-1-25,18,15,13,14,8,2,84,71,56,0.00,40.00,9,4,14,5.54
2013-1-26,31,22,17,21,16,11,86,75,57,0.00,40.00,11,3,16,1.65
2013-1-27,30,23,10,18,13,6,86,67,53,0.00,40.00,9,4,15,0.00
2013-1-28,48,40,29,46,37,18,93,88,61,0.00,40.00,9,5,17,1.65
2013-1-29,62,55,48,54,50,46,94,83,64,0.00,40.00,13,5,22,0.00
2013-1-30,67,57,37,55,49,32,91,74,59,0.00,40.00,24,11,39,3.85
2013-1-31,37,23,18,32,16,8,88,71,55,0.00,40.00,21,12,34,6.68